Wetterdaten: aktuell Montag, 31.08.2026 10:50
Datum Zeit Arbeit-Z. Temp. A. Bod.+5cm Temp. A. min Temp. A. max Bl.Temp +1m BTemp -5cm BTemp -10cm BTemp -20cm BTemp -50cm Feuchte I. Feuchte A. BlattFeu +1m BFeucht -5cm BFeucht-10cm BFeucht-20cm BFeucht-50cm Luftdruck Regen Wind Richtung Richtung Sonnenschein ET UV Solar Taupunkt Windchill Windböen Empfang
31.08.2026 10:50 25,1 °C 21,7 °C 20,0 °C 21,7 °C 22,1 °C 20,0 °C 20,0 °C 20,6 °C 20,6 °C 20,6 °C 48 % 67 % 0 lf 200 cb 200 cb 200 cb 111 cb 1014,2 hPa 0,0 l/m² 4,7 km/h (1 Bft) W-SW 238 ° 50 min 0,153 mm 2,4 UV-I 262 W/m² 15,3 °C 21,7 °C 12,9 km/h (3 Bft) 93,50 %
31.08.2026 09:50 25,3 °C 20,9 °C 17,8 °C 20,8 °C 20,9 °C 19,4 °C 19,4 °C 20,6 °C 20,6 °C 20,6 °C 50 % 72 % 0 lf 200 cb 200 cb 200 cb 112 cb 1013,9 hPa 0,0 l/m² 5,7 km/h (1 Bft) SW 221 ° 20 min 0,051 mm 1,5 UV-I 427 W/m² 15,7 °C 20,9 °C 11,3 km/h (2 Bft) 97,39 %
31.08.2026 08:50 25,7 °C 19,4 °C 16,7 °C 19,4 °C 19,4 °C 19,4 °C 19,4 °C 20,6 °C 20,6 °C 20,6 °C 52 % 80 % 0 lf 200 cb 200 cb 200 cb 112 cb 1013,7 hPa 0,0 l/m² 1,4 km/h (1 Bft) W 265 ° 0 min 0,025 mm 0,0 UV-I 77 W/m² 15,9 °C 19,4 °C 4,8 km/h (1 Bft) 97,44 %
31.08.2026 07:50 26,2 °C 18,7 °C 16,7 °C 18,7 °C 18,8 °C 19,4 °C 19,4 °C 20,6 °C 21,1 °C 20,6 °C 53 % 89 % 13 lf 200 cb 200 cb 200 cb 112 cb 1013,4 hPa 0,0 l/m² 2,9 km/h (1 Bft) S-SW 213 ° 0 min 0,000 mm 0,0 UV-I 35 W/m² 16,8 °C 18,7 °C 6,4 km/h (2 Bft) 93,65 %
31.08.2026 06:50 26,2 °C 19,4 °C 16,7 °C 19,4 °C 19,4 °C 20,0 °C 20,0 °C 21,1 °C 21,1 °C 20,6 °C 53 % 85 % 15 lf 200 cb 200 cb 200 cb 112 cb 1012,9 hPa 0,0 l/m² 3,6 km/h (1 Bft) W-SW 242 ° 0 min 0,025 mm 0,0 UV-I 0 W/m² 16,8 °C 19,4 °C 9,7 km/h (2 Bft) 97,22 %
31.08.2026 05:50 26,3 °C 19,3 °C 17,2 °C 19,3 °C 19,5 °C 20,0 °C 20,0 °C 21,1 °C 21,1 °C 20,6 °C 53 % 89 % 15 lf 200 cb 200 cb 200 cb 112 cb 1012,5 hPa 0,0 l/m² 1,2 km/h (1 Bft) NW 320 ° 0 min 0,000 mm 0,0 UV-I 0 W/m² 17,4 °C 19,3 °C 6,4 km/h (2 Bft) 92,50 %
31.08.2026 04:50 26,3 °C 19,6 °C 17,2 °C 19,6 °C 19,6 °C 20,0 °C 20,0 °C 21,1 °C 21,1 °C 20,6 °C 54 % 90 % 15 lf 200 cb 200 cb 200 cb 112 cb 1012,2 hPa 2,0 l/m² 3,5 km/h (1 Bft) SW 223 ° 0 min 0,000 mm 0,0 UV-I 0 W/m² 17,9 °C 19,6 °C 9,7 km/h (2 Bft) 96,67 %
31.08.2026 03:50 26,3 °C 19,1 °C 17,2 °C 19,1 °C 19,2 °C 20,0 °C 20,0 °C 21,1 °C 21,1 °C 20,6 °C 53 % 92 % 15 lf 200 cb 200 cb 200 cb 112 cb 1011,7 hPa 1,4 l/m² 0,9 km/h (0 Bft) N-NW 340 ° 0 min 0,026 mm 0,0 UV-I 0 W/m² 17,8 °C 19,1 °C 3,2 km/h (1 Bft) 96,61 %
31.08.2026 02:50 26,3 °C 19,8 °C 17,2 °C 19,7 °C 19,8 °C 20,6 °C 20,6 °C 21,1 °C 21,1 °C 20,6 °C 53 % 88 % 15 lf 200 cb 200 cb 200 cb 112 cb 1011,9 hPa 0,2 l/m² 2,0 km/h (1 Bft) S 190 ° 0 min 0,025 mm 0,0 UV-I 0 W/m² 17,8 °C 19,8 °C 8,0 km/h (2 Bft) 96,40 %
31.08.2026 01:50 26,3 °C 19,5 °C 17,2 °C 19,5 °C 19,7 °C 20,6 °C 20,6 °C 21,1 °C 21,1 °C 20,6 °C 52 % 87 % 15 lf 200 cb 200 cb 200 cb 111 cb 1011,1 hPa 1,0 l/m² 0,1 km/h (0 Bft) S 182 ° 0 min 0,051 mm 0,0 UV-I 0 W/m² 17,3 °C 19,5 °C 1,6 km/h (1 Bft) 94,35 %
31.08.2026 00:50 26,3 °C 21,2 °C 19,4 °C 21,1 °C 21,2 °C 20,6 °C 20,6 °C 21,7 °C 21,1 °C 20,6 °C 51 % 73 % 0 lf 200 cb 200 cb 200 cb 111 cb 1009,7 hPa 0,0 l/m² 2,6 km/h (1 Bft) W-SW 245 ° 0 min 0,000 mm 0,0 UV-I 0 W/m² 16,2 °C 21,2 °C 9,7 km/h (2 Bft) 94,26 %
30.08.2026 23:50 26,3 °C 21,6 °C 20,0 °C 21,6 °C 21,7 °C 21,1 °C 21,1 °C 21,7 °C 21,1 °C 20,6 °C 50 % 71 % 0 lf 200 cb 200 cb 200 cb 111 cb 1009,9 hPa 0,0 l/m² 6,8 km/h (2 Bft) SW 225 ° 0 min 0,051 mm 0,0 UV-I 0 W/m² 16,1 °C 21,5 °C 14,5 km/h (3 Bft) 98,11 %
30.08.2026 22:50 26,3 °C 22,2 °C 20,6 °C 22,2 °C 22,3 °C 21,1 °C 21,1 °C 21,7 °C 21,1 °C 20,6 °C 50 % 70 % 0 lf 200 cb 200 cb 200 cb 111 cb 1010,3 hPa 0,0 l/m² 4,0 km/h (1 Bft) S 188 ° 0 min 0,025 mm 0,0 UV-I 0 W/m² 16,5 °C 22,2 °C 11,3 km/h (2 Bft) 93,22 %
30.08.2026 21:50 26,4 °C 22,0 °C 19,4 °C 21,9 °C 22,1 °C 21,1 °C 21,1 °C 21,7 °C 21,1 °C 20,6 °C 50 % 70 % 0 lf 200 cb 200 cb 200 cb 111 cb 1010,5 hPa 0,0 l/m² 0,1 km/h (0 Bft) W-SW 239 ° 0 min 0,000 mm 0,0 UV-I 0 W/m² 16,3 °C 22,0 °C 1,6 km/h (1 Bft) 91,43 %
30.08.2026 20:50 26,4 °C 23,6 °C 20,6 °C 23,6 °C 23,6 °C 21,7 °C 21,7 °C 21,7 °C 21,1 °C 20,6 °C 49 % 64 % 0 lf 200 cb 200 cb 200 cb 110 cb 1010,5 hPa 0,0 l/m² 0,0 km/h (0 Bft) SO 129 ° 0 min 0,051 mm 0,0 UV-I 0 W/m² 16,4 °C 23,6 °C 0,0 km/h (0 Bft) 97,44 %
30.08.2026 19:50 26,4 °C 25,8 °C 23,3 °C 25,8 °C 26,2 °C 21,7 °C 21,7 °C 21,7 °C 21,1 °C 20,6 °C 48 % 55 % 0 lf 200 cb 200 cb 200 cb 110 cb 1010,3 hPa 0,0 l/m² 0,1 km/h (0 Bft) W-SW 256 ° 0 min 0,076 mm 0,0 UV-I 21 W/m² 16,1 °C 25,8 °C 1,6 km/h (1 Bft) 90,74 %
30.08.2026 18:50 26,4 °C 26,8 °C 25,6 °C 26,8 °C 26,9 °C 22,2 °C 22,2 °C 21,7 °C 21,1 °C 20,6 °C 49 % 51 % 0 lf 200 cb 200 cb 200 cb 110 cb 1010,4 hPa 0,0 l/m² 2,3 km/h (1 Bft) S-SW 194 ° 0 min 0,153 mm 0,0 UV-I 53 W/m² 15,8 °C 26,8 °C 8,0 km/h (2 Bft) 96,69 %
30.08.2026 17:50 26,3 °C 27,2 °C 27,2 °C 27,2 °C 27,4 °C 22,2 °C 22,2 °C 21,7 °C 20,6 °C 20,6 °C 50 % 54 % 0 lf 200 cb 200 cb 200 cb 110 cb 1010,7 hPa 0,0 l/m² 2,0 km/h (1 Bft) SW 215 ° 40 min 0,254 mm 0,7 UV-I 90 W/m² 17,1 °C 27,2 °C 6,4 km/h (2 Bft) 94,92 %
30.08.2026 16:50 26,2 °C 26,8 °C 26,7 °C 26,7 °C 26,8 °C 22,2 °C 22,2 °C 21,1 °C 20,6 °C 20,6 °C 51 % 58 % 0 lf 200 cb 200 cb 200 cb 110 cb 1011,0 hPa 0,0 l/m² 4,2 km/h (1 Bft) N-NW 337 ° 60 min 0,330 mm 1,3 UV-I 195 W/m² 17,8 °C 26,8 °C 11,3 km/h (2 Bft) 94,44 %
30.08.2026 15:50 26,1 °C 26,9 °C 26,7 °C 26,7 °C 26,9 °C 22,2 °C 22,2 °C 21,1 °C 20,6 °C 20,6 °C 51 % 56 % 0 lf 200 cb 200 cb 200 cb 109 cb 1011,5 hPa 0,0 l/m² 5,9 km/h (2 Bft) NW 313 ° 60 min 0,406 mm 2,2 UV-I 519 W/m² 17,4 °C 26,9 °C 17,7 km/h (3 Bft) 96,67 %
30.08.2026 14:50 25,9 °C 27,0 °C 26,7 °C 26,7 °C 27,0 °C 22,2 °C 22,2 °C 21,1 °C 20,6 °C 20,6 °C 52 % 60 % 0 lf 200 cb 200 cb 200 cb 109 cb 1012,0 hPa 0,0 l/m² 5,5 km/h (1 Bft) SW 217 ° 60 min 0,432 mm 3,2 UV-I 508 W/m² 18,6 °C 27,0 °C 12,9 km/h (3 Bft) 94,07 %
30.08.2026 13:50 25,7 °C 25,2 °C 25,0 °C 25,1 °C 25,2 °C 21,7 °C 21,7 °C 20,6 °C 20,6 °C 20,6 °C 54 % 65 % 0 lf 200 cb 200 cb 200 cb 109 cb 1012,5 hPa 0,0 l/m² 4,4 km/h (1 Bft) N-NO 15 ° 60 min 0,203 mm 4,6 UV-I 701 W/m² 18,1 °C 25,2 °C 12,9 km/h (3 Bft) 97,20 %
30.08.2026 12:50 25,6 °C 23,7 °C 22,8 °C 23,7 °C 23,9 °C 21,1 °C 21,1 °C 20,6 °C 20,6 °C 20,6 °C 53 % 67 % 0 lf 200 cb 200 cb 200 cb 108 cb 1012,9 hPa 0,0 l/m² 5,9 km/h (2 Bft) W-SW 244 ° 60 min 0,254 mm 2,5 UV-I 311 W/m² 17,2 °C 23,7 °C 12,9 km/h (3 Bft) 94,31 %
30.08.2026 11:50 25,5 °C 23,9 °C 23,3 °C 23,9 °C 24,3 °C 20,6 °C 20,6 °C 20,6 °C 20,6 °C 20,6 °C 54 % 66 % 0 lf 200 cb 200 cb 200 cb 108 cb 1012,9 hPa 0,0 l/m² 5,7 km/h (1 Bft) S 180 ° 50 min 0,229 mm 1,8 UV-I 260 W/m² 17,1 °C 23,9 °C 16,1 km/h (3 Bft) 96,30 %
30.08.2026 11:00 25,4 °C 23,6 °C 22,8 °C 23,6 °C 23,8 °C 20,0 °C 20,0 °C 20,6 °C 20,6 °C 20,6 °C 54 % 70 % 0 lf 200 cb 200 cb 200 cb 108 cb 1013,1 hPa 0,0 l/m² 4,4 km/h (1 Bft) NW 304 ° 0 min 0,229 mm 2,3 UV-I 251 W/m² 17,8 °C 23,6 °C 11,3 km/h (2 Bft) 96,46 %
_ Min-Zeit 10:40 07:25 06:20 07:25 07:25 07:20 07:20 11:00 11:00 11:00 19:15 18:15 11:00 11:00 11:00 11:00 11:00 00:40 - 20:00 - - - - - - 10:20 07:35 20:05 06:05
Minimum _ 25,1 °C 18,3 °C 16,7 °C 18,3 °C 18,4 °C 19,4 °C 19,4 °C 20,6 °C 20,6 °C 20,6 °C 48 % 50 % 0 lf 200 cb 200 cb 200 cb 108 cb 1009,6 hPa - 0,0 km/h (0 Bft) - - - - - - 15,1 °C 18,3 °C 0,0 km/h (0 Bft) 89,57 %
_ Max-Zeit 18:20 17:40 17:40 17:40 17:40 14:20 14:20 17:05 18:50 11:00 11:00 03:40 01:05 11:00 11:00 11:00 01:45 10:15 04:05 23:25 - - 11:00 14:00 13:10 14:45 13:15 17:40 10:40 12:25
Maximum _ 26,4 °C 27,6 °C 36,1 °C 27,3 °C 27,6 °C 22,2 °C 22,2 °C 21,7 °C 21,1 °C 20,6 °C 54 % 92 % 15 lf 200 cb 200 cb 200 cb 112 cb 1014,2 hPa 0,6 l/m² 7,8 km/h
W-SW (2 Bft)
- - 5 min 0,432 mm 4,9 UV-I 942 W/m² 18,9 °C 27,6 °C 25,7 km/h
W-SW (4 Bft)
100,00 %
Durchschnitt _ 26,0 °C 22,7 °C 21,2 °C 22,6 °C 22,8 °C 20,8 °C 20,8 °C 21,1 °C 20,9 °C 20,6 °C 52 % 72 % 4 lf 200 cb 200 cb 200 cb 110 cb 1011,9 hPa #4,6 l/m² 3,2 km/h (1 Bft) SW - #1:10 h #0,356 mm 1,5 UV-I 149 W/m² 17,0 °C 22,7 °C 9,5 km/h (2 Bft) 95,88 %
copy; 2009 Dieter Kraft